sensor_id;sensor_type;location;lat;lon;timestamp;pressure;altitude;pressure_sealevel;temperature;humidity
11712;BME280;5912;51.034;6.984;2023-06-14T00:01:17;56047.84;;;-142.13;35.21
11712;BME280;5912;51.034;6.984;2023-06-14T00:03:45;56077.91;;;-142.13;35.32
11712;BME280;5912;51.034;6.984;2023-06-14T00:06:10;56067.88;;;-142.13;35.25
11712;BME280;5912;51.034;6.984;2023-06-14T00:08:36;56049.84;;;-142.13;35.19
11712;BME280;5912;51.034;6.984;2023-06-14T00:11:01;56047.84;;;-142.13;35.26
11712;BME280;5912;51.034;6.984;2023-06-14T00:13:28;56051.84;;;-142.13;35.40
11712;BME280;5912;51.034;6.984;2023-06-14T00:15:53;56061.88;;;-142.13;35.32
11712;BME280;5912;51.034;6.984;2023-06-14T00:18:20;56067.88;;;-142.13;35.76
11712;BME280;5912;51.034;6.984;2023-06-14T00:20:49;56085.91;;;-142.13;35.50
11712;BME280;5912;51.034;6.984;2023-06-14T00:23:14;56055.84;;;-142.13;35.40
11712;BME280;5912;51.034;6.984;2023-06-14T00:25:40;56079.91;;;-142.13;35.98
11712;BME280;5912;51.034;6.984;2023-06-14T00:28:05;56079.91;;;-142.13;35.78
11712;BME280;5912;51.034;6.984;2023-06-14T00:30:30;56071.88;;;-142.13;35.91
11712;BME280;5912;51.034;6.984;2023-06-14T00:32:56;56081.91;;;-142.13;36.53
11712;BME280;5912;51.034;6.984;2023-06-14T00:35:21;56079.91;;;-142.13;36.24
11712;BME280;5912;51.034;6.984;2023-06-14T00:37:46;56075.88;;;-142.13;36.15
11712;BME280;5912;51.034;6.984;2023-06-14T00:40:12;56099.94;;;-142.13;36.32
11712;BME280;5912;51.034;6.984;2023-06-14T00:42:37;56099.94;;;-142.13;36.37
11712;BME280;5912;51.034;6.984;2023-06-14T00:45:02;56089.91;;;-142.13;36.60
11712;BME280;5912;51.034;6.984;2023-06-14T00:47:28;56091.91;;;-142.13;37.00
11712;BME280;5912;51.034;6.984;2023-06-14T00:49:54;56103.94;;;-142.13;36.94
11712;BME280;5912;51.034;6.984;2023-06-14T00:52:21;56123.97;;;-142.13;37.09
11712;BME280;5912;51.034;6.984;2023-06-14T00:54:47;56093.91;;;-142.13;36.56
11712;BME280;5912;51.034;6.984;2023-06-14T00:57:13;56107.94;;;-142.13;37.00
11712;BME280;5912;51.034;6.984;2023-06-14T01:02:07;56101.94;;;-142.13;36.50
11712;BME280;5912;51.034;6.984;2023-06-14T01:04:33;56087.91;;;-142.13;36.64
11712;BME280;5912;51.034;6.984;2023-06-14T01:07:10;56107.94;;;-142.13;36.51
11712;BME280;5912;51.034;6.984;2023-06-14T01:12:52;56077.91;;;-142.13;36.95
11712;BME280;5912;51.034;6.984;2023-06-14T01:15:20;56083.91;;;-142.13;37.19
11712;BME280;5912;51.034;6.984;2023-06-14T01:17:50;56115.94;;;-142.13;37.46
11712;BME280;5912;51.034;6.984;2023-06-14T01:20:17;56123.97;;;-142.13;37.94
11712;BME280;5912;51.034;6.984;2023-06-14T01:23:00;56119.97;;;-142.13;37.70
11712;BME280;5912;51.034;6.984;2023-06-14T01:25:26;56115.94;;;-142.13;37.51
11712;BME280;5912;51.034;6.984;2023-06-14T01:28:03;56093.91;;;-142.13;37.75
11712;BME280;5912;51.034;6.984;2023-06-14T01:30:30;56129.97;;;-142.13;37.80
11712;BME280;5912;51.034;6.984;2023-06-14T01:32:56;56123.97;;;-142.13;37.94
11712;BME280;5912;51.034;6.984;2023-06-14T01:35:23;56135.97;;;-142.13;38.30
11712;BME280;5912;51.034;6.984;2023-06-14T01:37:49;56107.94;;;-142.13;38.21
11712;BME280;5912;51.034;6.984;2023-06-14T01:40:15;56095.91;;;-142.13;37.96
11712;BME280;5912;51.034;6.984;2023-06-14T01:42:42;56148.00;;;-142.13;37.98
11712;BME280;5912;51.034;6.984;2023-06-14T01:45:09;56109.94;;;-142.13;37.92
11712;BME280;5912;51.034;6.984;2023-06-14T01:47:35;56107.94;;;-142.13;38.21
11712;BME280;5912;51.034;6.984;2023-06-14T01:50:02;56146.00;;;-142.13;38.48
11712;BME280;5912;51.034;6.984;2023-06-14T01:52:28;56135.97;;;-142.13;38.64
11712;BME280;5912;51.034;6.984;2023-06-14T01:54:53;56144.00;;;-142.13;38.72
11712;BME280;5912;51.034;6.984;2023-06-14T01:57:18;56123.97;;;-142.13;38.55
11712;BME280;5912;51.034;6.984;2023-06-14T01:59:44;56140.00;;;-142.13;38.81
11712;BME280;5912;51.034;6.984;2023-06-14T02:02:14;56140.00;;;-142.13;39.23
11712;BME280;5912;51.034;6.984;2023-06-14T02:04:40;56131.97;;;-142.13;39.19
11712;BME280;5912;51.034;6.984;2023-06-14T02:07:06;56123.97;;;-142.13;39.68
11712;BME280;5912;51.034;6.984;2023-06-14T02:09:31;56127.97;;;-142.13;39.45
11712;BME280;5912;51.034;6.984;2023-06-14T02:11:56;56133.97;;;-142.13;39.74
11712;BME280;5912;51.034;6.984;2023-06-14T02:14:22;56135.97;;;-142.13;40.08
11712;BME280;5912;51.034;6.984;2023-06-14T02:16:48;56172.03;;;-142.13;40.77
11712;BME280;5912;51.034;6.984;2023-06-14T02:19:18;56146.00;;;-142.13;40.93
11712;BME280;5912;51.034;6.984;2023-06-14T02:21:45;56135.97;;;-142.13;41.13
11712;BME280;5912;51.034;6.984;2023-06-14T02:24:10;56170.03;;;-142.13;41.29
11712;BME280;5912;51.034;6.984;2023-06-14T02:26:36;56150.00;;;-142.13;41.69
11712;BME280;5912;51.034;6.984;2023-06-14T02:29:06;56148.00;;;-142.13;41.75
11712;BME280;5912;51.034;6.984;2023-06-14T02:31:35;56158.00;;;-142.13;41.95
11712;BME280;5912;51.034;6.984;2023-06-14T02:34:00;56148.00;;;-142.13;42.05
11712;BME280;5912;51.034;6.984;2023-06-14T02:36:25;56148.00;;;-142.13;42.11
11712;BME280;5912;51.034;6.984;2023-06-14T02:38:51;56180.06;;;-142.13;42.22
11712;BME280;5912;51.034;6.984;2023-06-14T02:41:19;56186.06;;;-142.13;42.40
11712;BME280;5912;51.034;6.984;2023-06-14T02:43:44;56184.06;;;-142.13;42.19
11712;BME280;5912;51.034;6.984;2023-06-14T02:46:10;56146.00;;;-142.13;41.85
11712;BME280;5912;51.034;6.984;2023-06-14T02:48:36;56164.03;;;-142.13;41.91
11712;BME280;5912;51.034;6.984;2023-06-14T02:51:02;56174.03;;;-142.13;41.22
11712;BME280;5912;51.034;6.984;2023-06-14T02:53:27;56174.03;;;-142.13;41.09
11712;BME280;5912;51.034;6.984;2023-06-14T02:55:52;56170.03;;;-142.13;40.96
11712;BME280;5912;51.034;6.984;2023-06-14T02:58:20;56176.03;;;-142.13;41.95
11712;BME280;5912;51.034;6.984;2023-06-14T03:00:46;56168.03;;;-142.13;42.04
11712;BME280;5912;51.034;6.984;2023-06-14T03:03:11;56160.03;;;-142.13;42.23
11712;BME280;5912;51.034;6.984;2023-06-14T03:05:44;56156.00;;;-142.13;42.59
11712;BME280;5912;51.034;6.984;2023-06-14T03:08:13;56168.03;;;-142.13;43.02
11712;BME280;5912;51.034;6.984;2023-06-14T03:10:47;56166.03;;;-142.13;43.15
11712;BME280;5912;51.034;6.984;2023-06-14T03:13:13;56170.03;;;-142.13;43.25
11712;BME280;5912;51.034;6.984;2023-06-14T03:15:38;56186.06;;;-142.13;43.41
11712;BME280;5912;51.034;6.984;2023-06-14T03:18:07;56156.00;;;-142.13;43.54
11712;BME280;5912;51.034;6.984;2023-06-14T03:20:33;56188.06;;;-142.13;44.08
11712;BME280;5912;51.034;6.984;2023-06-14T03:23:02;56176.03;;;-142.13;44.26
11712;BME280;5912;51.034;6.984;2023-06-14T03:25:28;56174.03;;;-142.13;44.53
11712;BME280;5912;51.034;6.984;2023-06-14T03:27:55;56192.06;;;-142.13;44.74
11712;BME280;5912;51.034;6.984;2023-06-14T03:30:21;56168.03;;;-142.13;44.86
11712;BME280;5912;51.034;6.984;2023-06-14T03:32:46;56174.03;;;-142.13;44.95
11712;BME280;5912;51.034;6.984;2023-06-14T03:35:12;56162.03;;;-142.13;45.07
11712;BME280;5912;51.034;6.984;2023-06-14T03:37:45;56158.00;;;-142.13;45.28
11712;BME280;5912;51.034;6.984;2023-06-14T03:40:12;56172.03;;;-142.13;45.41
11712;BME280;5912;51.034;6.984;2023-06-14T03:42:38;56190.06;;;-142.13;45.43
11712;BME280;5912;51.034;6.984;2023-06-14T03:45:04;56168.03;;;-142.13;45.75
11712;BME280;5912;51.034;6.984;2023-06-14T03:47:29;56168.03;;;-142.13;46.22
11712;BME280;5912;51.034;6.984;2023-06-14T03:49:55;56204.09;;;-142.13;46.22
11712;BME280;5912;51.034;6.984;2023-06-14T03:52:21;56188.06;;;-142.13;46.20
11712;BME280;5912;51.034;6.984;2023-06-14T03:54:47;56192.06;;;-142.13;46.43
11712;BME280;5912;51.034;6.984;2023-06-14T03:57:12;56172.03;;;-142.13;46.49
11712;BME280;5912;51.034;6.984;2023-06-14T03:59:38;56196.06;;;-142.13;46.66
11712;BME280;5912;51.034;6.984;2023-06-14T04:02:03;56188.06;;;-142.13;46.91
11712;BME280;5912;51.034;6.984;2023-06-14T04:04:29;56182.06;;;-142.13;47.09
11712;BME280;5912;51.034;6.984;2023-06-14T04:06:55;56188.06;;;-142.13;46.80
11712;BME280;5912;51.034;6.984;2023-06-14T04:09:23;56184.06;;;-142.13;46.82
11712;BME280;5912;51.034;6.984;2023-06-14T04:11:50;56178.03;;;-142.13;46.80
11712;BME280;5912;51.034;6.984;2023-06-14T04:14:15;56184.06;;;-142.13;46.70
11712;BME280;5912;51.034;6.984;2023-06-14T04:16:40;56180.06;;;-142.13;46.86
11712;BME280;5912;51.034;6.984;2023-06-14T04:19:06;56236.13;;;-142.13;46.10
11712;BME280;5912;51.034;6.984;2023-06-14T04:21:31;56184.06;;;-142.13;45.94
11712;BME280;5912;51.034;6.984;2023-06-14T04:24:24;56172.03;;;-142.13;45.65
11712;BME280;5912;51.034;6.984;2023-06-14T04:26:50;56156.00;;;-142.13;45.79
11712;BME280;5912;51.034;6.984;2023-06-14T04:29:17;56180.06;;;-142.13;46.13
11712;BME280;5912;51.034;6.984;2023-06-14T04:31:45;56156.00;;;-142.13;46.20
11712;BME280;5912;51.034;6.984;2023-06-14T04:34:11;56164.03;;;-142.13;46.25
11712;BME280;5912;51.034;6.984;2023-06-14T04:36:42;56156.00;;;-142.13;45.89
11712;BME280;5912;51.034;6.984;2023-06-14T04:39:15;56154.00;;;-142.13;45.96
11712;BME280;5912;51.034;6.984;2023-06-14T04:41:41;56146.00;;;-142.13;44.42
11712;BME280;5912;51.034;6.984;2023-06-14T04:44:06;56152.00;;;-142.13;44.71
11712;BME280;5912;51.034;6.984;2023-06-14T04:46:32;56131.97;;;-142.13;43.90
11712;BME280;5912;51.034;6.984;2023-06-14T04:48:57;56140.00;;;-142.13;42.24
11712;BME280;5912;51.034;6.984;2023-06-14T04:51:26;56131.97;;;-142.13;41.59
11712;BME280;5912;51.034;6.984;2023-06-14T04:53:57;56093.91;;;-142.13;40.96
11712;BME280;5912;51.034;6.984;2023-06-14T04:56:23;56123.97;;;-142.13;39.80
11712;BME280;5912;51.034;6.984;2023-06-14T04:58:50;56109.94;;;-142.13;39.39
11712;BME280;5912;51.034;6.984;2023-06-14T05:01:15;56103.94;;;-142.13;39.49
11712;BME280;5912;51.034;6.984;2023-06-14T05:03:41;56077.91;;;-142.13;38.56
11712;BME280;5912;51.034;6.984;2023-06-14T05:06:06;56091.91;;;-142.13;38.13
11712;BME280;5912;51.034;6.984;2023-06-14T05:08:31;56091.91;;;-142.13;37.30
11712;BME280;5912;51.034;6.984;2023-06-14T05:10:57;56083.91;;;-142.13;36.26
11712;BME280;5912;51.034;6.984;2023-06-14T05:13:22;56063.88;;;-142.13;36.27
11712;BME280;5912;51.034;6.984;2023-06-14T05:15:48;56063.88;;;-142.13;35.50
11712;BME280;5912;51.034;6.984;2023-06-14T05:18:14;56037.84;;;-142.13;35.91
11712;BME280;5912;51.034;6.984;2023-06-14T05:20:41;56047.84;;;-142.13;35.45
11712;BME280;5912;51.034;6.984;2023-06-14T05:23:07;56047.84;;;-142.13;35.26
11712;BME280;5912;51.034;6.984;2023-06-14T05:25:32;56027.81;;;-142.13;35.65
11712;BME280;5912;51.034;6.984;2023-06-14T05:27:58;56039.84;;;-142.13;35.67
11712;BME280;5912;51.034;6.984;2023-06-14T05:30:23;56041.84;;;-142.13;35.23
11712;BME280;5912;51.034;6.984;2023-06-14T05:32:48;56013.78;;;-142.13;35.12
11712;BME280;5912;51.034;6.984;2023-06-14T05:35:14;56053.84;;;-142.13;35.23
11712;BME280;5912;51.034;6.984;2023-06-14T05:37:39;56035.81;;;-142.13;35.28
11712;BME280;5912;51.034;6.984;2023-06-14T05:40:05;56035.81;;;-142.13;35.44
11712;BME280;5912;51.034;6.984;2023-06-14T05:42:31;56023.81;;;-142.13;35.39
11712;BME280;5912;51.034;6.984;2023-06-14T05:44:57;56039.84;;;-142.13;35.73
11712;BME280;5912;51.034;6.984;2023-06-14T05:47:22;56003.78;;;-142.13;35.76
11712;BME280;5912;51.034;6.984;2023-06-14T05:49:47;56039.84;;;-142.13;35.12
11712;BME280;5912;51.034;6.984;2023-06-14T05:52:13;56023.81;;;-142.13;34.81
11712;BME280;5912;51.034;6.984;2023-06-14T05:54:38;56013.78;;;-142.13;34.40
11712;BME280;5912;51.034;6.984;2023-06-14T05:57:04;56007.78;;;-142.13;34.57
11712;BME280;5912;51.034;6.984;2023-06-14T05:59:31;56011.78;;;-142.13;34.42
11712;BME280;5912;51.034;6.984;2023-06-14T06:01:56;56009.78;;;-142.13;33.70
11712;BME280;5912;51.034;6.984;2023-06-14T06:04:23;55979.75;;;-142.13;33.16
11712;BME280;5912;51.034;6.984;2023-06-14T06:06:48;55969.72;;;-142.13;32.91
11712;BME280;5912;51.034;6.984;2023-06-14T06:09:13;55939.69;;;-142.13;31.70
11712;BME280;5912;51.034;6.984;2023-06-14T06:11:41;55931.66;;;-142.13;31.75
11712;BME280;5912;51.034;6.984;2023-06-14T06:14:06;55887.59;;;-142.13;30.62
11712;BME280;5912;51.034;6.984;2023-06-14T06:16:32;55869.59;;;-142.13;30.76
11712;BME280;5912;51.034;6.984;2023-06-14T06:18:58;55877.59;;;-142.13;30.26
11712;BME280;5912;51.034;6.984;2023-06-14T06:21:23;55869.59;;;-142.13;29.94
11712;BME280;5912;51.034;6.984;2023-06-14T06:23:48;55835.53;;;-142.13;29.20
11712;BME280;5912;51.034;6.984;2023-06-14T06:26:13;55821.50;;;-142.13;28.49
11712;BME280;5912;51.034;6.984;2023-06-14T06:28:39;55803.47;;;-142.13;27.92
11712;BME280;5912;51.034;6.984;2023-06-14T06:31:04;55791.47;;;-142.13;27.39
11712;BME280;5912;51.034;6.984;2023-06-14T06:33:30;55757.41;;;-142.13;27.30
11712;BME280;5912;51.034;6.984;2023-06-14T06:35:55;55755.41;;;-142.13;26.98
11712;BME280;5912;51.034;6.984;2023-06-14T06:38:21;55723.38;;;-142.13;26.88
11712;BME280;5912;51.034;6.984;2023-06-14T06:40:46;55707.34;;;-142.13;25.71
11712;BME280;5912;51.034;6.984;2023-06-14T06:43:12;55693.31;;;-142.13;25.92
11712;BME280;5912;51.034;6.984;2023-06-14T06:45:39;55717.34;;;-142.13;25.63
11712;BME280;5912;51.034;6.984;2023-06-14T06:48:05;55711.34;;;-142.13;25.58
11712;BME280;5912;51.034;6.984;2023-06-14T06:50:30;55699.34;;;-142.13;25.17
11712;BME280;5912;51.034;6.984;2023-06-14T06:52:55;55687.31;;;-142.13;24.66
11712;BME280;5912;51.034;6.984;2023-06-14T06:55:21;55683.31;;;-142.13;24.52
11712;BME280;5912;51.034;6.984;2023-06-14T06:57:46;55665.28;;;-142.13;24.57
11712;BME280;5912;51.034;6.984;2023-06-14T07:00:12;55683.31;;;-142.13;24.71
11712;BME280;5912;51.034;6.984;2023-06-14T07:02:37;55663.28;;;-142.13;24.55
11712;BME280;5912;51.034;6.984;2023-06-14T07:05:03;55631.25;;;-142.13;23.98
11712;BME280;5912;51.034;6.984;2023-06-14T07:07:29;55625.22;;;-142.13;23.69
11712;BME280;5912;51.034;6.984;2023-06-14T07:09:54;55625.22;;;-142.13;23.15
11712;BME280;5912;51.034;6.984;2023-06-14T07:12:22;55603.19;;;-142.13;22.81
11712;BME280;5912;51.034;6.984;2023-06-14T07:14:48;55735.38;;;-142.13;23.17
11712;BME280;5912;51.034;6.984;2023-06-14T07:17:13;55587.19;;;-142.13;22.84
11712;BME280;5912;51.034;6.984;2023-06-14T07:19:38;55589.19;;;-142.13;22.81
11712;BME280;5912;51.034;6.984;2023-06-14T07:22:04;55589.19;;;-142.13;22.44
11712;BME280;5912;51.034;6.984;2023-06-14T07:24:29;55583.16;;;-142.13;22.37
11712;BME280;5912;51.034;6.984;2023-06-14T07:26:55;55583.16;;;-142.13;22.34
11712;BME280;5912;51.034;6.984;2023-06-14T07:29:21;55579.16;;;-142.13;21.80
11712;BME280;5912;51.034;6.984;2023-06-14T07:31:47;55559.13;;;-142.13;21.46
11712;BME280;5912;51.034;6.984;2023-06-14T07:34:12;55563.13;;;-142.13;21.64
11712;BME280;5912;51.034;6.984;2023-06-14T07:36:37;55583.16;;;-142.13;21.80
11712;BME280;5912;51.034;6.984;2023-06-14T07:39:03;55559.13;;;-142.13;21.58
11712;BME280;5912;51.034;6.984;2023-06-14T07:41:29;55543.13;;;-142.13;21.06
11712;BME280;5912;51.034;6.984;2023-06-14T07:43:54;55561.13;;;-142.13;21.35
11712;BME280;5912;51.034;6.984;2023-06-14T07:46:20;55563.13;;;-142.13;21.14
11712;BME280;5912;51.034;6.984;2023-06-14T07:48:45;55551.13;;;-142.13;21.00
11712;BME280;5912;51.034;6.984;2023-06-14T07:51:11;55559.13;;;-142.13;20.76
11712;BME280;5912;51.034;6.984;2023-06-14T07:53:36;55533.09;;;-142.13;20.58
11712;BME280;5912;51.034;6.984;2023-06-14T07:56:01;55497.06;;;-142.13;20.36
11712;BME280;5912;51.034;6.984;2023-06-14T07:58:27;55505.06;;;-142.13;20.09
11712;BME280;5912;51.034;6.984;2023-06-14T08:00:53;55779.44;;;-142.13;20.47
11712;BME280;5912;51.034;6.984;2023-06-14T08:03:18;55499.06;;;-142.13;20.38
11712;BME280;5912;51.034;6.984;2023-06-14T08:05:44;55507.06;;;-142.13;19.76
11712;BME280;5912;51.034;6.984;2023-06-14T08:08:10;55473.00;;;-142.13;19.78
11712;BME280;5912;51.034;6.984;2023-06-14T08:10:35;55495.03;;;-142.13;19.58
11712;BME280;5912;51.034;6.984;2023-06-14T08:13:00;55503.06;;;-142.13;19.34
11712;BME280;5912;51.034;6.984;2023-06-14T08:15:26;55497.06;;;-142.13;19.32
11712;BME280;5912;51.034;6.984;2023-06-14T08:17:52;55501.06;;;-142.13;19.20
11712;BME280;5912;51.034;6.984;2023-06-14T08:20:17;55485.03;;;-142.13;18.95
11712;BME280;5912;51.034;6.984;2023-06-14T08:22:43;55483.03;;;-142.13;19.19
11712;BME280;5912;51.034;6.984;2023-06-14T08:25:08;55493.03;;;-142.13;19.17
11712;BME280;5912;51.034;6.984;2023-06-14T08:27:34;55519.09;;;-142.13;19.12
11712;BME280;5912;51.034;6.984;2023-06-14T08:30:00;55483.03;;;-142.13;19.51
11712;BME280;5912;51.034;6.984;2023-06-14T08:32:25;55487.03;;;-142.13;18.96
11712;BME280;5912;51.034;6.984;2023-06-14T08:34:51;55475.03;;;-142.13;19.39
11712;BME280;5912;51.034;6.984;2023-06-14T08:37:16;55519.09;;;-142.13;19.63
11712;BME280;5912;51.034;6.984;2023-06-14T08:39:42;55505.06;;;-142.13;19.31
11712;BME280;5912;51.034;6.984;2023-06-14T08:42:09;55511.06;;;-142.13;19.57
11712;BME280;5912;51.034;6.984;2023-06-14T08:44:35;55511.06;;;-142.13;19.38
11712;BME280;5912;51.034;6.984;2023-06-14T08:47:00;55515.06;;;-142.13;19.46
11712;BME280;5912;51.034;6.984;2023-06-14T08:49:29;55509.06;;;-142.13;20.23
11712;BME280;5912;51.034;6.984;2023-06-14T08:51:59;55509.06;;;-142.13;19.78
11712;BME280;5912;51.034;6.984;2023-06-14T08:54:28;55497.06;;;-142.13;19.45
11712;BME280;5912;51.034;6.984;2023-06-14T08:56:59;55503.06;;;-142.13;19.36
11712;BME280;5912;51.034;6.984;2023-06-14T08:59:26;55485.03;;;-142.13;19.78
11712;BME280;5912;51.034;6.984;2023-06-14T09:01:52;55523.09;;;-142.13;19.73
11712;BME280;5912;51.034;6.984;2023-06-14T09:04:18;55527.09;;;-142.13;19.73
11712;BME280;5912;51.034;6.984;2023-06-14T09:06:45;55503.06;;;-142.13;20.08
11712;BME280;5912;51.034;6.984;2023-06-14T09:09:10;55491.03;;;-142.13;19.73
11712;BME280;5912;51.034;6.984;2023-06-14T09:11:36;55475.03;;;-142.13;19.88
11712;BME280;5912;51.034;6.984;2023-06-14T09:14:01;55483.03;;;-142.13;19.78
11712;BME280;5912;51.034;6.984;2023-06-14T09:16:27;55491.03;;;-142.13;20.14
11712;BME280;5912;51.034;6.984;2023-06-14T09:18:53;55481.03;;;-142.13;19.93
11712;BME280;5912;51.034;6.984;2023-06-14T09:21:19;55467.00;;;-142.13;19.96
11712;BME280;5912;51.034;6.984;2023-06-14T09:23:46;55507.06;;;-142.13;20.13
11712;BME280;5912;51.034;6.984;2023-06-14T09:26:14;55463.00;;;-142.13;20.79
11712;BME280;5912;51.034;6.984;2023-06-14T09:28:43;55529.09;;;-142.13;20.74
11712;BME280;5912;51.034;6.984;2023-06-14T09:31:11;55525.09;;;-142.13;20.49
11712;BME280;5912;51.034;6.984;2023-06-14T09:33:36;55539.09;;;-142.13;20.86
11712;BME280;5912;51.034;6.984;2023-06-14T09:36:03;55533.09;;;-142.13;20.94
11712;BME280;5912;51.034;6.984;2023-06-14T09:38:29;55523.09;;;-142.13;20.84
11712;BME280;5912;51.034;6.984;2023-06-14T09:40:58;55541.09;;;-142.13;20.58
11712;BME280;5912;51.034;6.984;2023-06-14T09:43:24;55555.13;;;-142.13;21.19
11712;BME280;5912;51.034;6.984;2023-06-14T09:45:51;55571.16;;;-142.13;21.48
11712;BME280;5912;51.034;6.984;2023-06-14T09:48:16;55543.13;;;-142.13;21.51
11712;BME280;5912;51.034;6.984;2023-06-14T09:50:46;55563.13;;;-142.13;21.53
11712;BME280;5912;51.034;6.984;2023-06-14T09:53:14;55551.13;;;-142.13;21.05
11712;BME280;5912;51.034;6.984;2023-06-14T09:55:41;55585.16;;;-142.13;21.44
11712;BME280;5912;51.034;6.984;2023-06-14T09:58:08;55571.16;;;-142.13;21.73
11712;BME280;5912;51.034;6.984;2023-06-14T10:00:35;55567.16;;;-142.13;22.12
11712;BME280;5912;51.034;6.984;2023-06-14T10:03:16;55567.16;;;-142.13;21.73
11712;BME280;5912;51.034;6.984;2023-06-14T10:05:46;55593.19;;;-142.13;22.06
11712;BME280;5912;51.034;6.984;2023-06-14T10:08:14;55603.19;;;-142.13;21.88
11712;BME280;5912;51.034;6.984;2023-06-14T10:10:42;55587.19;;;-142.13;22.17
11712;BME280;5912;51.034;6.984;2023-06-14T10:13:08;55563.13;;;-142.13;21.95
11712;BME280;5912;51.034;6.984;2023-06-14T10:18:49;55543.13;;;-142.13;21.95
11712;BME280;5912;51.034;6.984;2023-06-14T10:21:33;55531.09;;;-142.13;21.68
11712;BME280;5912;51.034;6.984;2023-06-14T10:24:05;55543.13;;;-142.13;21.82
11712;BME280;5912;51.034;6.984;2023-06-14T10:26:32;55543.13;;;-142.13;21.82
11712;BME280;5912;51.034;6.984;2023-06-14T10:29:01;55563.13;;;-142.13;21.84
11712;BME280;5912;51.034;6.984;2023-06-14T10:31:47;55575.16;;;-142.13;22.09
11712;BME280;5912;51.034;6.984;2023-06-14T10:34:22;55537.09;;;-142.13;22.06
11712;BME280;5912;51.034;6.984;2023-06-14T10:37:00;55549.13;;;-142.13;21.56
11712;BME280;5912;51.034;6.984;2023-06-14T10:39:27;55551.13;;;-142.13;22.04
11712;BME280;5912;51.034;6.984;2023-06-14T10:41:53;55535.09;;;-142.13;21.99
11712;BME280;5912;51.034;6.984;2023-06-14T10:49:17;55551.13;;;-142.13;22.12
11712;BME280;5912;51.034;6.984;2023-06-14T10:51:57;55545.13;;;-142.13;22.07
11712;BME280;5912;51.034;6.984;2023-06-14T10:54:23;55555.13;;;-142.13;22.25
11712;BME280;5912;51.034;6.984;2023-06-14T10:56:51;55551.13;;;-142.13;21.90
11712;BME280;5912;51.034;6.984;2023-06-14T10:59:17;55529.09;;;-142.13;21.18
11712;BME280;5912;51.034;6.984;2023-06-14T11:01:58;55519.09;;;-142.13;20.74
11712;BME280;5912;51.034;6.984;2023-06-14T11:04:48;55529.09;;;-142.13;20.61
11712;BME280;5912;51.034;6.984;2023-06-14T11:10:35;55523.09;;;-142.13;21.05
11712;BME280;5912;51.034;6.984;2023-06-14T11:13:02;55499.06;;;-142.13;20.82
11712;BME280;5912;51.034;6.984;2023-06-14T11:15:32;55513.06;;;-142.13;20.41
11712;BME280;5912;51.034;6.984;2023-06-14T11:18:01;55513.06;;;-142.13;20.35
11712;BME280;5912;51.034;6.984;2023-06-14T11:20:29;55507.06;;;-142.13;20.71
11712;BME280;5912;51.034;6.984;2023-06-14T11:22:55;55491.03;;;-142.13;20.71
11712;BME280;5912;51.034;6.984;2023-06-14T11:25:20;55515.06;;;-142.13;21.09
11712;BME280;5912;51.034;6.984;2023-06-14T11:27:46;55499.06;;;-142.13;21.31
11712;BME280;5912;51.034;6.984;2023-06-14T11:30:13;55503.06;;;-142.13;21.60
11712;BME280;5912;51.034;6.984;2023-06-14T11:32:39;55491.03;;;-142.13;21.08
11712;BME280;5912;51.034;6.984;2023-06-14T11:35:05;55505.06;;;-142.13;21.21
11712;BME280;5912;51.034;6.984;2023-06-14T11:37:31;55469.00;;;-142.13;21.30
11712;BME280;5912;51.034;6.984;2023-06-14T11:40:00;55450.97;;;-142.13;21.04
11712;BME280;5912;51.034;6.984;2023-06-14T11:42:29;55442.97;;;-142.13;20.56
11712;BME280;5912;51.034;6.984;2023-06-14T11:44:55;55461.00;;;-142.13;19.98
11712;BME280;5912;51.034;6.984;2023-06-14T11:47:21;55463.00;;;-142.13;20.28
11712;BME280;5912;51.034;6.984;2023-06-14T11:49:48;55487.03;;;-142.13;20.51
11712;BME280;5912;51.034;6.984;2023-06-14T11:52:13;55503.06;;;-142.13;21.11
11712;BME280;5912;51.034;6.984;2023-06-14T11:54:39;55507.06;;;-142.13;20.70
11712;BME280;5912;51.034;6.984;2023-06-14T11:57:09;55471.00;;;-142.13;20.62
11712;BME280;5912;51.034;6.984;2023-06-14T11:59:38;55487.03;;;-142.13;20.38
11712;BME280;5912;51.034;6.984;2023-06-14T12:02:05;55479.03;;;-142.13;20.39
11712;BME280;5912;51.034;6.984;2023-06-14T12:04:32;55523.09;;;-142.13;20.45
11712;BME280;5912;51.034;6.984;2023-06-14T12:06:57;55471.00;;;-142.13;20.47
11712;BME280;5912;51.034;6.984;2023-06-14T12:09:23;55479.03;;;-142.13;20.44
11712;BME280;5912;51.034;6.984;2023-06-14T12:11:59;55477.03;;;-142.13;20.36
11712;BME280;5912;51.034;6.984;2023-06-14T12:14:31;55463.00;;;-142.13;20.47
11712;BME280;5912;51.034;6.984;2023-06-14T12:17:06;55465.00;;;-142.13;20.38
11712;BME280;5912;51.034;6.984;2023-06-14T12:19:33;55448.97;;;-142.13;19.42
11712;BME280;5912;51.034;6.984;2023-06-14T12:22:03;55455.00;;;-142.13;19.44
11712;BME280;5912;51.034;6.984;2023-06-14T12:24:30;55438.97;;;-142.13;19.58
11712;BME280;5912;51.034;6.984;2023-06-14T12:27:00;55499.06;;;-142.13;19.75
11712;BME280;5912;51.034;6.984;2023-06-14T12:29:28;55495.03;;;-142.13;19.49
11712;BME280;5912;51.034;6.984;2023-06-14T12:31:53;55475.03;;;-142.13;20.05
11712;BME280;5912;51.034;6.984;2023-06-14T12:34:19;55461.00;;;-142.13;19.17
11712;BME280;5912;51.034;6.984;2023-06-14T12:36:45;55475.03;;;-142.13;19.76
11712;BME280;5912;51.034;6.984;2023-06-14T12:39:12;55485.03;;;-142.13;19.83
11712;BME280;5912;51.034;6.984;2023-06-14T12:41:37;55461.00;;;-142.13;19.79
11712;BME280;5912;51.034;6.984;2023-06-14T12:44:03;55469.00;;;-142.13;19.80
11712;BME280;5912;51.034;6.984;2023-06-14T12:46:30;55471.00;;;-142.13;20.01
11712;BME280;5912;51.034;6.984;2023-06-14T12:48:56;55485.03;;;-142.13;20.09
11712;BME280;5912;51.034;6.984;2023-06-14T12:51:22;55473.00;;;-142.13;20.42
11712;BME280;5912;51.034;6.984;2023-06-14T12:53:47;55509.06;;;-142.13;20.23
11712;BME280;5912;51.034;6.984;2023-06-14T12:56:14;55509.06;;;-142.13;20.64
11712;BME280;5912;51.034;6.984;2023-06-14T12:58:39;55515.06;;;-142.13;20.52
11712;BME280;5912;51.034;6.984;2023-06-14T13:01:05;55505.06;;;-142.13;20.49
11712;BME280;5912;51.034;6.984;2023-06-14T13:03:30;55479.03;;;-142.13;20.60
11712;BME280;5912;51.034;6.984;2023-06-14T13:05:56;55515.06;;;-142.13;20.77